Time;durP1;ratioP1;P1;durP2;ratioP2;P2;SDS_P1;SDS_P2;PMS_P1;PMS_P2;Temp;Humidity;BMP_temperature;BMP_pressure;BME280_temperature;BME280_humidity;BME280_pressure;Samples;Min_cycle;Max_cycle;Signal;HPM_P1;HPM_P2
2022/03/22 00:00:25;;;;;;;13.90;4.67;;;;;;;8.63;62.41;101774.88;1630319;87;21125;-64
2022/03/22 00:02:54;;;;;;;14.83;4.80;;;;;;;8.73;62.34;101777.51;1635532;85;21238;-60
2022/03/22 00:05:21;;;;;;;16.02;4.90;;;;;;;8.69;62.46;101779.55;1689711;83;20992;-61
2022/03/22 00:07:50;;;;;;;12.07;4.17;;;;;;;8.74;61.77;101777.36;1701297;83;21022;-60
2022/03/22 00:10:19;;;;;;;15.93;5.30;;;;;;;8.82;61.62;101779.78;1705448;83;21015;-64
2022/03/22 00:12:49;;;;;;;16.93;4.30;;;;;;;8.79;61.42;101780.89;1703885;83;20999;-60
2022/03/22 00:15:17;;;;;;;17.73;4.83;;;;;;;9.00;60.42;101777.69;1703674;84;21640;-61
2022/03/22 00:17:44;;;;;;;10.65;4.25;;;;;;;8.97;59.89;101789.65;1704097;84;21003;-59
2022/03/22 00:20:12;;;;;;;12.35;4.70;;;;;;;8.80;60.96;101785.13;1704340;84;21070;-61
2022/03/22 00:22:40;;;;;;;14.68;4.12;;;;;;;8.83;60.90;101786.16;1684232;84;20996;-59
2022/03/22 00:25:09;;;;;;;10.82;4.67;;;;;;;8.83;61.29;101780.96;1678203;84;21686;-63
2022/03/22 00:27:52;;;;;;;16.80;4.67;;;;;;;8.98;60.99;101785.30;1694957;83;21907;-60
2022/03/22 00:30:27;;;;;;;14.33;5.03;;;;;;;9.02;59.98;101787.97;1690223;83;20904;-63
2022/03/22 00:32:55;;;;;;;13.60;4.75;;;;;;;9.08;59.95;101780.91;1674930;84;21106;-60
2022/03/22 00:35:36;;;;;;;11.73;4.28;;;;;;;9.21;59.46;101785.86;1677864;82;21316;-61
2022/03/22 00:38:05;;;;;;;12.98;4.72;;;;;;;9.17;59.53;101784.50;1704467;82;21075;-64
2022/03/22 00:40:33;;;;;;;11.12;5.20;;;;;;;9.11;59.86;101783.73;1702296;84;21215;-60
2022/03/22 00:43:01;;;;;;;11.70;3.90;;;;;;;9.07;60.46;101788.38;1704796;83;20999;-66
2022/03/22 00:45:35;;;;;;;15.70;4.67;;;;;;;9.07;60.57;101792.28;1708387;83;21565;-60
2022/03/22 00:47:58;;;;;;;11.73;5.47;;;;;;;9.13;60.38;101792.20;1688038;83;21031;-62
2022/03/22 00:50:33;;;;;;;11.88;4.97;;;;;;;9.21;60.06;101791.89;1676364;85;21094;-60
2022/03/22 00:53:00;;;;;;;16.93;4.45;;;;;;;9.27;59.72;101790.50;1694163;83;21252;-64
2022/03/22 00:55:28;;;;;;;13.35;4.60;;;;;;;9.31;59.29;101789.75;1682006;83;21319;-60
2022/03/22 00:57:55;;;;;;;16.77;5.30;;;;;;;9.20;59.53;101793.30;1696714;82;21003;-64
2022/03/22 01:00:29;;;;;;;11.90;4.55;;;;;;;9.18;59.70;101793.94;1709705;83;21285;-60
2022/03/22 01:02:58;;;;;;;13.38;4.65;;;;;;;9.34;58.90;101794.20;1700990;82;21675;-64
2022/03/22 01:05:27;;;;;;;12.53;5.30;;;;;;;9.48;58.25;101799.00;1738988;82;21318;-60
2022/03/22 01:08:01;;;;;;;16.55;4.97;;;;;;;9.36;58.30;101802.71;1739844;82;20890;-64
2022/03/22 01:10:30;;;;;;;13.45;4.70;;;;;;;9.34;58.12;101803.80;1712629;82;21140;-65
2022/03/22 01:12:57;;;;;;;14.38;4.67;;;;;;;9.20;58.93;101806.31;1719127;82;21111;-60
2022/03/22 01:15:33;;;;;;;13.45;4.90;;;;;;;9.47;58.09;101801.27;1723179;82;21459;-59
2022/03/22 01:18:06;;;;;;;12.45;4.67;;;;;;;9.48;57.75;101809.90;1689154;83;22034;-63
2022/03/22 01:20:44;;;;;;;13.70;4.87;;;;;;;9.16;59.35;101814.05;1706718;83;21130;-60
2022/03/22 01:23:13;;;;;;;16.73;4.03;;;;;;;8.99;59.47;101814.24;1704680;82;21062;-59
2022/03/22 01:25:41;;;;;;;14.25;5.97;;;;;;;9.34;59.22;101821.53;1703345;83;21036;-61
2022/03/22 01:28:09;;;;;;;17.32;5.22;;;;;;;8.97;60.67;101832.56;1702262;83;21115;-64
2022/03/22 01:30:37;;;;;;;14.47;4.67;;;;;;;9.03;59.64;101822.12;1705026;83;22075;-58
2022/03/22 01:33:04;;;;;;;12.58;4.70;;;;;;;8.94;60.46;101831.56;1702924;83;21064;-59
2022/03/22 01:35:32;;;;;;;14.68;4.87;;;;;;;9.08;60.63;101834.23;1703551;83;20981;-62
2022/03/22 01:37:59;;;;;;;17.40;5.30;;;;;;;8.90;60.75;101840.58;1702841;83;21648;-63
2022/03/22 01:40:27;;;;;;;13.50;5.12;;;;;;;8.89;61.17;101838.91;1703970;83;21026;-59
2022/03/22 01:42:55;;;;;;;14.87;5.17;;;;;;;8.90;61.08;101844.48;1702947;83;21877;-59
2022/03/22 01:45:22;;;;;;;12.70;4.95;;;;;;;8.90;61.45;101847.53;1703215;83;20997;-59
2022/03/22 01:47:49;;;;;;;13.70;4.50;;;;;;;9.50;58.58;101855.64;1700634;83;22154;-59
2022/03/22 01:50:19;;;;;;;12.90;5.45;;;;;;;10.06;55.87;101853.27;1698719;82;21146;-60
2022/03/22 01:52:49;;;;;;;13.43;4.75;;;;;;;9.65;55.89;101859.14;1708016;82;21003;-59
2022/03/22 01:55:18;;;;;;;11.95;4.80;;;;;;;9.72;56.10;101864.95;1706298;82;21163;-59
2022/03/22 01:57:45;;;;;;;13.43;4.72;;;;;;;9.97;54.90;101860.16;1704979;82;20980;-63
2022/03/22 02:00:15;;;;;;;14.00;5.00;;;;;;;9.73;54.84;101869.69;1690936;83;22505;-59
2022/03/22 02:05:52;;;;;;;12.78;5.15;;;;;;;9.45;55.66;101873.94;1678350;85;21556;-59
2022/03/22 02:08:21;;;;;;;11.65;5.15;;;;;;;9.42;56.35;101875.02;1703110;83;21171;-60
2022/03/22 02:10:50;;;;;;;16.50;5.28;;;;;;;9.59;55.69;101868.81;1707219;83;21010;-64
2022/03/22 02:13:18;;;;;;;13.38;4.78;;;;;;;9.63;55.57;101883.20;1705823;82;21176;-62
2022/03/22 02:15:49;;;;;;;12.88;4.87;;;;;;;9.52;55.41;101875.52;1705848;83;21004;-59
2022/03/22 02:18:18;;;;;;;13.50;5.12;;;;;;;9.01;57.15;101884.66;1707110;83;21054;-59
2022/03/22 02:20:47;;;;;;;19.67;5.55;;;;;;;9.39;57.39;101890.08;1708809;83;20936;-60
2022/03/22 02:23:42;;;;;;;12.90;5.12;;;;;;;9.25;56.56;101900.42;1709204;83;21536;-58
2022/03/22 02:26:10;;;;;;;13.90;4.87;;;;;;;9.61;55.57;101890.31;1708191;83;20916;-63
2022/03/22 02:28:38;;;;;;;12.60;4.72;;;;;;;9.64;55.26;101904.37;1692054;83;21189;-59
2022/03/22 02:31:05;;;;;;;16.57;5.67;;;;;;;9.49;55.27;101896.95;1678697;85;21011;-64
2022/03/22 02:33:35;;;;;;;15.08;5.97;;;;;;;9.74;54.73;101906.51;1706277;83;21054;-59
2022/03/22 02:36:03;;;;;;;14.68;5.22;;;;;;;9.70;54.45;101902.53;1706276;83;21018;-60
2022/03/22 02:38:31;;;;;;;14.50;5.45;;;;;;;9.79;54.17;101907.39;1693448;83;21532;-60
2022/03/22 02:40:59;;;;;;;13.72;6.08;;;;;;;9.63;54.41;101907.94;1677817;85;21082;-61
2022/03/22 02:43:26;;;;;;;12.00;4.78;;;;;;;9.67;54.08;101911.43;1677705;85;21063;-59
2022/03/22 02:45:53;;;;;;;14.93;5.83;;;;;;;9.65;53.83;101920.33;1678568;85;21281;-62
2022/03/22 02:48:20;;;;;;;12.37;4.67;;;;;;;9.39;54.70;101924.73;1678254;85;21505;-59
2022/03/22 02:50:48;;;;;;;14.75;5.55;;;;;;;7.87;58.99;101935.84;1678900;85;20960;-59
2022/03/22 02:53:16;;;;;;;12.65;5.22;;;;;;;7.22;72.26;101942.25;1687001;82;21149;-65
2022/03/22 02:55:43;;;;;;;14.00;4.75;;;;;;;7.30;74.41;101941.17;1707447;83;20987;-60
2022/03/22 02:58:10;;;;;;;11.00;4.85;;;;;;;7.27;76.64;101951.81;1703868;83;21259;-63
2022/03/22 03:00:37;;;;;;;14.28;5.95;;;;;;;7.17;78.43;101956.05;1682316;84;21071;-60
2022/03/22 03:03:05;;;;;;;14.95;4.62;;;;;;;7.03;81.70;101957.59;1684400;83;21071;-60
2022/03/22 03:05:33;;;;;;;15.03;5.03;;;;;;;7.09;82.44;101958.42;1682006;83;21099;-61
2022/03/22 03:08:00;;;;;;;16.07;4.58;;;;;;;7.05;83.23;101971.27;1689075;84;21564;-60
2022/03/22 03:10:29;;;;;;;14.07;5.00;;;;;;;6.95;84.72;101968.55;1675612;85;21066;-60
2022/03/22 03:13:00;;;;;;;13.53;4.78;;;;;;;7.27;79.70;101968.67;1681044;84;20959;-59
2022/03/22 03:15:27;;;;;;;14.75;5.40;;;;;;;7.26;80.12;101973.48;1692538;83;21490;-59
2022/03/22 03:17:55;;;;;;;13.88;6.30;;;;;;;7.24;80.41;101974.56;1679548;84;21166;-59
2022/03/22 03:20:22;;;;;;;11.08;4.85;;;;;;;7.09;81.24;101977.87;1680027;85;21497;-59
2022/03/22 03:22:50;;;;;;;12.18;5.42;;;;;;;7.10;82.16;101978.69;1682304;83;21550;-59
2022/03/22 03:25:18;;;;;;;15.15;5.65;;;;;;;7.13;81.59;101974.57;1691841;84;20987;-63
2022/03/22 03:27:46;;;;;;;16.82;5.00;;;;;;;7.28;80.87;101978.09;1702290;83;21109;-58
2022/03/22 03:30:14;;;;;;;10.90;4.50;;;;;;;7.18;81.25;101979.73;1701983;83;21030;-59
2022/03/22 03:32:41;;;;;;;11.22;5.22;;;;;;;7.21;81.93;101986.47;1662354;83;21190;-59
2022/03/22 03:35:09;;;;;;;13.65;5.37;;;;;;;7.12;81.87;101984.56;1685628;83;21185;-63
2022/03/22 03:37:39;;;;;;;11.43;4.85;;;;;;;7.08;83.52;101993.05;1680094;84;20904;-58
2022/03/22 03:40:08;;;;;;;13.98;5.47;;;;;;;7.19;83.00;101987.87;1707549;83;20975;-63
2022/03/22 03:42:42;;;;;;;12.18;5.65;;;;;;;7.20;84.29;101999.09;1707469;83;21840;-59
2022/03/22 03:47:55;;;;;;;15.55;5.22;;;;;;;7.74;80.46;101994.42;1686382;83;21233;-61
2022/03/22 03:50:22;;;;;;;13.60;4.65;;;;;;;8.24;75.66;101994.23;1708527;83;21014;-59
2022/03/22 03:52:52;;;;;;;11.18;5.25;;;;;;;8.60;71.83;101996.55;1686461;83;20986;-63
2022/03/22 03:55:19;;;;;;;12.53;5.10;;;;;;;8.63;70.55;102002.80;1695899;83;21008;-59
2022/03/22 03:57:48;;;;;;;11.73;4.75;;;;;;;9.03;68.40;102001.59;1706729;83;21528;-63
2022/03/22 04:00:17;;;;;;;14.50;5.00;;;;;;;9.47;65.40;102003.45;1708174;80;21767;-62
2022/03/22 04:02:44;;;;;;;15.40;5.75;;;;;;;9.84;61.23;102005.46;1713703;82;20998;-61
2022/03/22 04:05:11;;;;;;;13.48;5.60;;;;;;;10.20;58.54;102013.11;1729003;82;21575;-60
2022/03/22 04:07:40;;;;;;;13.43;5.35;;;;;;;10.20;58.52;102013.11;1738724;82;21019;-61
2022/03/22 04:10:08;;;;;;;13.15;5.15;;;;;;;10.56;56.96;102014.67;1727970;82;21728;-60
2022/03/22 04:12:44;;;;;;;10.60;4.47;;;;;;;10.77;54.52;102008.81;1727563;82;21208;-59
2022/03/22 04:15:11;;;;;;;9.98;4.37;;;;;;;11.12;53.80;102017.27;1730050;82;21058;-60
2022/03/22 04:17:39;;;;;;;12.55;5.70;;;;;;;11.88;51.09;102017.03;1732974;82;21006;-62
2022/03/22 04:20:08;;;;;;;13.60;4.80;;;;;;;12.07;50.18;102020.48;1714815;82;21058;-59
2022/03/22 04:22:35;;;;;;;10.95;5.03;;;;;;;12.33;49.60;102025.28;1714108;83;21625;-60
2022/03/22 04:25:04;;;;;;;12.85;5.03;;;;;;;12.70;48.39;102029.48;1715223;83;21277;-63
2022/03/22 04:32:55;;;;;;;11.57;4.63;;;;;;;13.99;43.98;102030.20;1680805;82;21106;-60
2022/03/22 04:35:27;;;;;;;11.47;5.00;;;;;;;14.10;42.84;102031.69;1739157;81;21353;-59
2022/03/22 04:37:54;;;;;;;12.77;4.90;;;;;;;14.10;42.60;102033.00;1732996;81;21369;-61
2022/03/22 04:40:22;;;;;;;10.03;4.70;;;;;;;14.14;42.06;102038.25;1744848;80;21335;-61
2022/03/22 04:42:50;;;;;;;12.63;4.87;;;;;;;14.21;41.93;102050.23;1729348;81;21172;-64
2022/03/22 04:45:18;;;;;;;11.47;4.37;;;;;;;14.33;41.29;102056.78;1716803;81;21315;-59
2022/03/22 04:47:46;;;;;;;11.07;5.20;;;;;;;14.25;41.11;102052.36;1714439;83;21259;-59
2022/03/22 04:50:16;;;;;;;14.43;5.43;;;;;;;14.34;41.26;102055.30;1715137;83;21132;-59
2022/03/22 04:58:16;;;;;;;11.43;4.90;;;;;;;14.79;40.11;102067.12;1678738;83;21849;-62
2022/03/22 05:00:44;;;;;;;10.80;4.93;;;;;;;14.81;39.45;102073.50;1742672;80;21498;-61
2022/03/22 05:03:12;;;;;;;10.33;4.47;;;;;;;14.51;39.53;102069.78;1765846;79;21326;-58
2022/03/22 05:08:27;;;;;;;10.20;4.90;;;;;;;14.30;39.75;102087.27;1759652;81;21204;-63
2022/03/22 05:10:56;;;;;;;9.97;4.30;;;;;;;14.44;39.36;102079.26;1761856;81;21281;-59
2022/03/22 05:13:23;;;;;;;11.70;4.90;;;;;;;14.08;40.08;102080.34;1755704;81;21671;-60
2022/03/22 05:15:52;;;;;;;12.33;4.20;;;;;;;13.87;40.25;102101.78;1743639;80;21240;-60
2022/03/22 05:18:21;;;;;;;7.87;4.00;;;;;;;13.32;40.81;102104.81;1752511;81;21353;-62
2022/03/22 05:20:48;;;;;;;11.77;4.13;;;;;;;12.80;41.39;102109.19;1754503;81;21080;-59
2022/03/22 05:23:17;;;;;;;10.93;4.67;;;;;;;12.27;42.60;102121.31;1725562;80;21226;-59
2022/03/22 05:25:44;;;;;;;10.08;4.78;;;;;;;11.78;43.51;102128.61;1723801;80;21304;-59
2022/03/22 05:28:11;;;;;;;11.28;4.70;;;;;;;11.37;44.90;102128.08;1749795;80;21335;-62
2022/03/22 05:30:39;;;;;;;12.55;4.85;;;;;;;10.98;45.72;102126.50;1752298;81;20998;-60
2022/03/22 05:33:06;;;;;;;11.33;4.45;;;;;;;11.01;46.04;102146.62;1754159;80;21043;-59
2022/03/22 05:35:35;;;;;;;13.00;5.92;;;;;;;11.06;46.30;102152.72;1750057;80;21574;-60
2022/03/22 05:38:03;;;;;;;9.15;4.03;;;;;;;10.85;46.71;102149.80;1752395;81;21093;-64
2022/03/22 05:40:30;;;;;;;13.35;5.40;;;;;;;10.81;46.92;102157.56;1751514;81;22542;-62
2022/03/22 05:42:58;;;;;;;14.95;6.17;;;;;;;10.89;47.67;102152.47;1752712;81;21635;-58
2022/03/22 05:45:26;;;;;;;12.35;5.45;;;;;;;11.00;46.70;102152.81;1742556;80;20979;-58
2022/03/22 05:47:54;;;;;;;13.40;4.40;;;;;;;10.88;46.72;102165.67;1741944;82;21592;-59
2022/03/22 05:50:21;;;;;;;9.63;4.00;;;;;;;11.12;46.62;102169.14;1742123;82;21043;-62
2022/03/22 05:52:49;;;;;;;11.05;4.17;;;;;;;11.12;46.73;102171.27;1749444;80;21161;-58
2022/03/22 05:55:16;;;;;;;9.40;3.58;;;;;;;11.43;46.32;102171.88;1753295;81;21574;-60
2022/03/22 05:57:43;;;;;;;8.88;4.00;;;;;;;11.60;45.91;102176.05;1755330;80;21061;-58
2022/03/22 06:00:13;;;;;;;12.95;4.58;;;;;;;11.67;45.27;102187.58;1746163;81;20983;-58
2022/03/22 06:02:41;;;;;;;11.25;3.52;;;;;;;11.42;45.40;102179.38;1733977;82;21099;-59
2022/03/22 06:05:09;;;;;;;11.88;4.70;;;;;;;11.49;45.17;102195.80;1737463;80;22311;-58
2022/03/22 06:07:38;;;;;;;9.43;3.60;;;;;;;11.43;44.89;102188.86;1724928;80;20970;-58
2022/03/22 06:10:06;;;;;;;10.70;3.95;;;;;;;11.32;44.42;102181.18;1716270;83;20907;-57
2022/03/22 06:12:40;;;;;;;7.92;3.20;;;;;;;11.12;44.93;102185.62;1714711;82;21528;-62
2022/03/22 06:15:15;;;;;;;7.35;3.22;;;;;;;11.26;44.63;102180.45;1728553;80;21074;-59
2022/03/22 06:17:47;;;;;;;8.28;2.95;;;;;;;11.59;43.94;102193.52;1708883;82;21350;-58
2022/03/22 06:20:15;;;;;;;7.85;3.47;;;;;;;11.81;43.16;102192.31;1728473;82;21051;-62
2022/03/22 06:22:45;;;;;;;7.87;3.33;;;;;;;12.07;42.72;102201.66;1728690;82;21104;-57
2022/03/22 06:25:13;;;;;;;8.93;3.47;;;;;;;12.60;42.14;102204.03;1729150;82;20936;-59
2022/03/22 06:27:46;;;;;;;6.33;3.10;;;;;;;13.33;40.59;102202.08;1728511;80;21529;-58
2022/03/22 06:30:15;;;;;;;8.57;2.80;;;;;;;13.80;40.17;102212.17;1744403;80;21210;-62
2022/03/22 06:32:59;;;;;;;7.27;2.63;;;;;;;14.14;37.97;102206.09;1728712;82;21165;-58
2022/03/22 06:35:28;;;;;;;9.00;3.23;;;;;;;14.33;37.65;102204.52;1729606;82;21102;-58
2022/03/22 06:37:55;;;;;;;8.67;3.00;;;;;;;14.51;37.03;102213.62;1729280;80;21256;-61
2022/03/22 06:40:23;;;;;;;11.33;2.97;;;;;;;14.92;36.26;102211.52;1729687;80;21458;-58
2022/03/22 06:42:51;;;;;;;7.87;2.50;;;;;;;15.44;34.68;102208.53;1722459;80;21497;-58
2022/03/22 06:45:19;;;;;;;7.43;3.00;;;;;;;15.44;34.68;102208.53;1715708;83;22071;-59
2022/03/22 06:47:48;;;;;;;6.23;2.67;;;;;;;15.81;34.21;102222.44;1711275;83;21483;-63
2022/03/22 06:50:17;;;;;;;6.00;2.60;;;;;;;15.81;34.21;102222.44;1722476;80;22823;-59
2022/03/22 06:52:45;;;;;;;8.40;2.57;;;;;;;15.88;33.32;102211.57;1744519;80;21657;-58
2022/03/22 06:55:16;;;;;;;7.43;3.43;;;;;;;15.96;32.87;102212.03;1748946;80;21617;-57
2022/03/22 06:57:43;;;;;;;6.25;2.15;;;;;;;16.03;32.42;102230.09;1733882;80;21630;-63
2022/03/22 07:00:15;;;;;;;7.37;2.03;;;;;;;15.96;31.72;102220.73;1744659;81;22299;-60
2022/03/22 07:02:41;;;;;;;4.90;2.02;;;;;;;15.81;31.53;102219.31;1746817;80;21768;-59
2022/03/22 07:05:11;;;;;;;3.17;1.47;;;;;;;15.94;31.47;102221.89;1745598;80;21108;-64
2022/03/22 07:07:38;;;;;;;5.07;1.87;;;;;;;15.98;30.95;102234.52;1747466;80;21694;-63
2022/03/22 07:10:07;;;;;;;4.93;1.67;;;;;;;16.07;30.91;102237.15;1745384;80;21807;-59
2022/03/22 07:12:55;;;;;;;5.30;1.60;;;;;;;15.97;30.50;102236.02;1747196;80;22162;-61
2022/03/22 07:15:27;;;;;;;5.60;1.53;;;;;;;15.78;30.61;102238.05;1727551;80;21055;-63
2022/03/22 07:17:54;;;;;;;5.10;1.50;;;;;;;15.78;30.61;102238.05;1706477;81;22296;-61
2022/03/22 07:20:23;;;;;;;5.13;1.47;;;;;;;15.73;30.07;102243.00;1745904;80;21354;-59
2022/03/22 07:22:50;;;;;;;4.40;1.10;;;;;;;15.71;29.94;102234.45;1743373;81;21775;-60
2022/03/22 07:25:17;;;;;;;3.30;1.10;;;;;;;15.98;29.18;102252.12;1734634;82;21649;-59
2022/03/22 07:27:45;;;;;;;6.67;1.47;;;;;;;15.85;29.56;102240.02;1733712;80;23050;-59
2022/03/22 07:30:14;;;;;;;5.73;1.57;;;;;;;15.39;29.56;102251.58;1734081;82;21749;-59
2022/03/22 07:32:42;;;;;;;5.67;1.47;;;;;;;14.99;30.94;102245.33;1735279;82;21750;-61
2022/03/22 07:35:10;;;;;;;3.63;1.10;;;;;;;14.99;30.94;102245.33;1735170;81;21691;-60
2022/03/22 07:37:38;;;;;;;3.47;1.30;;;;;;;15.19;31.00;102234.00;1735393;82;21571;-61
2022/03/22 07:40:08;;;;;;;3.10;1.13;;;;;;;15.50;29.89;102244.17;1731513;80;21669;-59
2022/03/22 07:42:35;;;;;;;3.07;1.20;;;;;;;15.95;29.09;102233.58;1732794;80;21759;-60
2022/03/22 07:45:06;;;;;;;3.63;1.23;;;;;;;16.29;28.61;102245.10;1733914;82;21671;-59
2022/03/22 07:47:33;;;;;;;3.20;1.10;;;;;;;16.36;28.11;102232.05;1735812;82;22759;-59
2022/03/22 07:52:58;;;;;;;3.17;1.30;;;;;;;16.68;27.86;102232.37;1733964;82;21744;-59
2022/03/22 07:55:26;;;;;;;4.07;1.20;;;;;;;16.74;27.43;102232.18;1735296;82;21668;-62
2022/03/22 07:57:54;;;;;;;5.27;1.40;;;;;;;16.78;27.48;102231.68;1735930;82;21119;-60
2022/03/22 08:00:22;;;;;;;5.63;2.17;;;;;;;16.88;27.86;102233.24;1731789;80;22255;-62
2022/03/22 08:02:54;;;;;;;3.47;1.40;;;;;;;16.88;27.86;102233.24;1718018;83;21567;-60
2022/03/22 08:05:22;;;;;;;3.67;1.37;;;;;;;17.07;27.54;102236.71;1713076;83;21634;-59
2022/03/22 08:07:49;;;;;;;4.20;1.33;;;;;;;16.96;27.30;102241.08;1710680;83;22324;-57
2022/03/22 08:10:16;;;;;;;3.50;1.30;;;;;;;16.87;27.14;102237.70;1710307;83;21741;-61
2022/03/22 08:12:44;;;;;;;5.10;2.10;;;;;;;16.75;27.35;102244.38;1710579;80;21697;-58
2022/03/22 08:15:13;;;;;;;4.27;1.07;;;;;;;16.59;27.19;102245.24;1730253;82;21019;-59
2022/03/22 08:17:40;;;;;;;4.43;1.40;;;;;;;16.96;27.00;102247.16;1722880;80;22784;-59
2022/03/22 08:20:10;;;;;;;3.83;1.40;;;;;;;17.23;26.67;102254.20;1724570;80;21726;-62
2022/03/22 08:22:52;;;;;;;4.73;1.47;;;;;;;17.18;26.81;102257.37;1723670;82;21703;-57
2022/03/22 08:25:34;;;;;;;3.60;1.17;;;;;;;16.76;27.25;102254.72;1738910;80;21706;-57
2022/03/22 08:28:03;;;;;;;3.17;1.27;;;;;;;16.78;26.86;102244.00;1741398;80;21681;-58
2022/03/22 08:30:31;;;;;;;4.37;1.40;;;;;;;16.90;26.74;102261.06;1741422;81;22304;-58
2022/03/22 08:32:59;;;;;;;3.33;1.00;;;;;;;16.74;26.56;102256.73;1751424;81;21109;-56
2022/03/22 08:35:28;;;;;;;4.07;0.90;;;;;;;16.58;26.42;102256.78;1753475;81;22084;-57
2022/03/22 08:37:55;;;;;;;2.77;1.03;;;;;;;16.71;25.49;102255.72;1728720;80;21647;-56
2022/03/22 08:40:23;;;;;;;2.07;0.93;;;;;;;16.16;25.67;102244.81;1710169;83;21827;-62
2022/03/22 08:42:52;;;;;;;2.43;0.83;;;;;;;16.88;24.92;102252.50;1709213;83;21793;-58
2022/03/22 08:45:22;;;;;;;2.87;0.97;;;;;;;17.03;24.59;102273.63;1721777;80;21791;-58
2022/03/22 08:47:50;;;;;;;2.50;0.90;;;;;;;16.21;25.34;102267.98;1741840;80;21585;-61
2022/03/22 08:50:19;;;;;;;3.83;0.90;;;;;;;16.03;25.31;102258.53;1736659;82;23195;-60
2022/03/22 08:52:47;;;;;;;2.73;0.83;;;;;;;16.03;25.31;102258.53;1717290;80;22205;-58
2022/03/22 08:55:17;;;;;;;4.67;1.40;;;;;;;16.39;25.10;102246.69;1737337;80;21729;-58
2022/03/22 08:57:47;;;;;;;4.37;1.10;;;;;;;16.39;25.10;102246.69;1738559;82;21737;-59
2022/03/22 09:00:16;;;;;;;3.90;1.50;;;;;;;16.69;24.61;102251.61;1739357;82;21891;-61
2022/03/22 09:02:45;;;;;;;2.67;0.80;;;;;;;16.87;24.24;102245.59;1719903;80;21600;-59
2022/03/22 09:07:59;;;;;;;4.23;1.03;;;;;;;17.13;24.25;102253.64;1738530;81;21489;-58
2022/03/22 09:10:29;;;;;;;2.00;0.73;;;;;;;17.35;23.86;102252.79;1710643;83;21274;-58
2022/03/22 09:12:57;;;;;;;1.90;0.80;;;;;;;17.10;23.59;102250.04;1680912;85;22310;-59
2022/03/22 09:15:29;;;;;;;2.20;0.80;;;;;;;16.60;23.48;102264.02;1698056;82;21549;-58
2022/03/22 09:17:55;;;;;;;3.35;1.15;;;;;;;17.29;23.12;102254.00;1697494;84;21762;-60
2022/03/22 09:20:31;;;;;;;5.07;1.77;;;;;;;17.01;23.30;102243.52;1698631;84;21113;-58
2022/03/22 09:22:56;;;;;;;2.00;0.60;;;;;;;17.16;22.95;102236.98;1698895;84;21492;-57
2022/03/22 09:25:24;;;;;;;3.77;1.03;;;;;;;17.20;22.62;102247.98;1699167;84;21422;-58
2022/03/22 09:27:52;;;;;;;3.47;0.63;;;;;;;17.44;22.74;102246.94;1690309;82;21416;-62
2022/03/22 09:30:21;;;;;;;2.53;0.70;;;;;;;17.50;22.40;102240.92;1671090;82;21772;-58
2022/03/22 09:32:49;;;;;;;4.00;0.83;;;;;;;17.34;21.92;102255.59;1671970;85;21881;-61
2022/03/22 09:35:21;;;;;;;2.63;1.00;;;;;;;16.95;22.53;102235.00;1671069;85;21941;-59
2022/03/22 09:37:47;;;;;;;3.30;1.03;;;;;;;16.16;23.14;102234.80;1669461;85;21544;-59
2022/03/22 09:40:15;;;;;;;2.90;0.90;;;;;;;15.47;23.80;102233.16;1670993;84;21323;-58
2022/03/22 09:42:45;;;;;;;3.63;0.90;;;;;;;15.47;23.80;102233.16;1670996;84;22470;-61
2022/03/22 09:45:14;;;;;;;5.37;1.40;;;;;;;16.07;24.10;102227.44;1693136;82;21763;-58
2022/03/22 09:47:44;;;;;;;4.62;1.22;;;;;;;16.28;24.00;102215.80;1717253;81;21388;-62
2022/03/22 09:50:13;;;;;;;5.87;1.77;;;;;;;16.68;23.26;102224.47;1698436;83;21511;-59
2022/03/22 09:52:40;;;;;;;3.67;1.83;;;;;;;16.73;23.54;102223.47;1674656;82;21414;-58
2022/03/22 09:55:12;;;;;;;3.10;1.10;;;;;;;16.37;23.84;102217.11;1696487;82;21303;-58
2022/03/22 09:57:39;;;;;;;4.07;1.70;;;;;;;15.86;24.56;102220.11;1698087;84;21558;-61
2022/03/22 10:00:09;;;;;;;4.73;1.93;;;;;;;16.70;23.99;102216.37;1699361;84;21547;-63
2022/03/22 10:02:40;;;;;;;5.50;2.53;;;;;;;16.28;24.17;102217.13;1675139;83;21510;-57
2022/03/22 10:05:10;;;;;;;5.03;2.10;;;;;;;16.28;24.17;102217.13;1717045;83;21992;-58
2022/03/22 10:07:37;;;;;;;6.07;2.40;;;;;;;16.91;23.78;102206.55;1666263;83;21356;-60
2022/03/22 10:10:07;;;;;;;5.77;2.10;;;;;;;16.95;23.96;102221.83;1695373;84;21353;-62
2022/03/22 10:12:37;;;;;;;6.77;3.77;;;;;;;17.48;23.20;102208.66;1693390;84;21442;-57
2022/03/22 10:15:15;;;;;;;6.07;3.40;;;;;;;17.48;23.20;102208.66;1666768;85;21349;-58
2022/03/22 10:17:46;;;;;;;9.43;4.67;;;;;;;17.19;23.03;102201.02;1669410;85;21403;-63
2022/03/22 10:20:23;;;;;;;8.33;4.80;;;;;;;17.04;23.41;102200.17;1657413;85;21888;-59
2022/03/22 10:23:00;;;;;;;9.90;4.43;;;;;;;16.86;23.76;102191.76;1673322;82;21346;-59
2022/03/22 10:25:32;;;;;;;7.20;3.67;;;;;;;16.86;23.76;102191.76;1729377;82;21442;-57
2022/03/22 10:28:02;;;;;;;7.05;3.27;;;;;;;17.05;22.98;102195.25;1728185;82;22485;-57
2022/03/22 10:30:30;;;;;;;10.33;4.33;;;;;;;16.80;22.91;102190.66;1730074;82;21368;-57
2022/03/22 10:32:58;;;;;;;7.43;4.33;;;;;;;16.30;23.45;102205.94;1729211;82;21241;-58
2022/03/22 10:35:32;;;;;;;6.27;3.77;;;;;;;16.16;23.72;102189.56;1729231;82;21823;-58
2022/03/22 10:38:06;;;;;;;6.87;3.17;;;;;;;16.10;23.58;102198.16;1724664;82;21991;-58
2022/03/22 10:40:46;;;;;;;8.93;3.63;;;;;;;16.02;23.37;102200.34;1681735;83;21313;-57
2022/03/22 10:43:18;;;;;;;7.17;4.30;;;;;;;16.68;22.99;102190.23;1689893;82;21295;-58
2022/03/22 10:46:01;;;;;;;11.10;4.30;;;;;;;16.90;22.95;102185.98;1690632;83;20976;-57
2022/03/22 10:48:34;;;;;;;5.27;2.30;;;;;;;16.90;22.93;102183.34;1694455;83;21303;-60
2022/03/22 10:51:03;;;;;;;6.30;2.97;;;;;;;17.19;23.66;102181.26;1692091;82;21551;-61
2022/03/22 10:53:32;;;;;;;7.83;3.10;;;;;;;17.37;22.82;102184.88;1656599;85;21922;-57
2022/03/22 10:56:02;;;;;;;5.07;2.97;;;;;;;17.47;22.65;102181.98;1674694;82;21690;-57
2022/03/22 10:58:30;;;;;;;5.27;2.87;;;;;;;17.34;22.35;102177.83;1714675;83;21458;-58
2022/03/22 11:01:03;;;;;;;7.67;2.90;;;;;;;17.38;22.55;102179.09;1715181;83;21900;-59
2022/03/22 11:03:32;;;;;;;6.33;2.70;;;;;;;17.49;21.91;102183.42;1673310;85;21450;-60
2022/03/22 11:06:03;;;;;;;4.60;1.90;;;;;;;17.29;21.42;102165.70;1671709;85;21288;-60
2022/03/22 11:08:32;;;;;;;3.87;1.75;;;;;;;17.29;21.42;102165.70;1671286;85;21369;-60
2022/03/22 11:10:59;;;;;;;4.30;2.17;;;;;;;17.12;23.46;102174.25;1663769;85;21000;-60
2022/03/22 11:13:29;;;;;;;8.60;2.37;;;;;;;17.12;23.46;102174.25;1694634;82;21766;-60
2022/03/22 11:15:57;;;;;;;8.27;2.47;;;;;;;17.20;23.48;102168.42;1690625;82;21484;-59
2022/03/22 11:18:28;;;;;;;9.83;3.97;;;;;;;17.39;23.78;102166.26;1669656;84;21983;-60
2022/03/22 11:20:58;;;;;;;4.78;2.40;;;;;;;17.77;21.46;102170.11;1692012;84;21351;-61
2022/03/22 11:23:32;;;;;;;7.83;2.65;;;;;;;17.35;21.61;102166.27;1692645;84;21047;-59
2022/03/22 11:26:16;;;;;;;5.90;2.60;;;;;;;17.42;21.40;102153.50;1691684;84;21015;-59
2022/03/22 11:28:48;;;;;;;6.27;2.83;;;;;;;17.53;21.14;102169.88;1664035;83;21724;-60
2022/03/22 11:31:18;;;;;;;9.93;3.90;;;;;;;16.69;21.10;102168.16;1673156;84;22181;-59
2022/03/22 11:36:49;;;;;;;7.13;3.10;;;;;;;16.49;23.99;102168.33;1685075;83;21692;-60
2022/03/22 11:42:15;;;;;;;7.73;3.20;;;;;;;16.42;24.67;102156.36;1661874;83;21460;-60
2022/03/22 11:44:39;;;;;;;7.27;3.00;;;;;;;16.60;23.61;102156.06;1664596;86;21432;-59
2022/03/22 11:47:17;;;;;;;;;;;;;;;16.45;23.23;102152.06;1667034;86;21556;-59
2022/03/22 11:50:05;;;;;;;7.33;2.90;;;;;;;16.35;24.63;102153.28;1667450;83;20183;-57
2022/03/22 11:52:44;;;;;;;5.80;2.17;;;;;;;16.36;24.70;102153.59;1696196;83;21553;-60
2022/03/22 11:55:26;;;;;;;4.60;2.30;;;;;;;16.39;24.61;102157.20;1699387;84;21392;-60
2022/03/22 11:58:12;;;;;;;5.27;2.60;;;;;;;16.39;24.61;102157.20;1699261;84;21483;-59
2022/03/22 12:00:58;;;;;;;5.87;3.37;;;;;;;16.11;25.27;102139.78;1692183;83;21511;-64
2022/03/22 12:03:35;;;;;;;4.20;2.20;;;;;;;16.11;25.27;102139.78;1678539;83;21762;-60
2022/03/22 12:06:12;;;;;;;4.50;2.27;;;;;;;16.29;24.31;102146.41;1706374;82;21356;-64